Maersk Weymouth — VRFS9 — position and weather

sailwx.info

Track history (hours):
 
Tides and Currents Weather Stations Pressure Air Temp Water Temp Dewpoint Dewpoint Depression Visibility Wind Speed Wind Dir Waves Ship Positions

Maersk Weymouth

Last reported at 2017-Aug-15 22:04 UTC. Time now 2017-Aug-20 11:34 UTC.
Position N 09°42' W 079°59'.

Length 175 m; draft 7.9 m.

Type: Cargo ship. MMSI: 477622100.

Date/timePositionNaut miles runAvg speedWind from/ knotsBaromVisibWave heightAir tempDewpointWater temp
2017-Aug-15 22:04N 09°42' W 079°59'613.6
2017-Aug-15 21:38N 09°36' W 079°57'213.7
2017-Aug-15 21:29N 09°34' W 079°57'613.5
2017-Aug-15 21:00N 09°28' W 079°54'510.9
2017-Aug-15 20:30N 09°23' W 079°54'1 1.8
2017-Aug-15 20:00N 09°22' W 079°53'0 0.0
2017-Aug-15 19:30N 09°22' W 079°53'0 0.0
2017-Aug-15 19:00N 09°22' W 079°53'0 0.0
2017-Aug-15 18:30N 09°22' W 079°53'0 0.0
2017-Aug-15 18:00N 09°22' W 079°53'0 0.0
2017-Aug-15 17:30N 09°22' W 079°53'0 0.0
2017-Aug-15 17:00N 09°22' W 079°53'0 0.0
2017-Aug-15 16:30N 09°22' W 079°53'0 0.0
2017-Aug-15 16:00N 09°22' W 079°53'0 0.0
2017-Aug-15 15:30N 09°22' W 079°53'0 0.0
2017-Aug-15 15:00N 09°22' W 079°53'0 0.0
2017-Aug-15 14:24N 09°22' W 079°53'0 0.0
2017-Aug-15 14:00N 09°22' W 079°53'0 0.0
2017-Aug-15 13:30N 09°22' W 079°53'0 0.0
2017-Aug-15 13:00N 09°22' W 079°53'0 0.0
2017-Aug-15 12:30N 09°22' W 079°53'0 0.0
2017-Aug-15 12:00N 09°22' W 079°53'0 0.0
2017-Aug-15 11:30N 09°22' W 079°53'0 0.0
2017-Aug-15 11:00N 09°22' W 079°53'0 0.0
2017-Aug-15 10:30N 09°22' W 079°53'0 0.0
2017-Aug-15 10:00N 09°22' W 079°53'0 0.0
2017-Aug-15 09:30N 09°22' W 079°53'0 0.0
2017-Aug-15 09:00N 09°22' W 079°53'0 0.0
2017-Aug-15 08:30N 09°22' W 079°53'0 0.0
2017-Aug-15 08:00N 09°22' W 079°53'0 0.0
2017-Aug-15 07:24N 09°22' W 079°53'0 0.0
2017-Aug-15 07:00N 09°22' W 079°53'0 0.0
2017-Aug-15 06:30N 09°22' W 079°53'0 0.7
2017-Aug-15 06:00N 09°22' W 079°53'3 5.3
2017-Aug-15 05:31N 09°25' W 079°54'2 4.6
2017-Aug-15 05:00N 09°26' W 079°52'0 0.4
2017-Aug-15 04:29N 09°26' W 079°52'0 0.0
2017-Aug-15 03:59N 09°26' W 079°52'0 0.0
2017-Aug-15 03:30N 09°26' W 079°52'0 0.0
2017-Aug-15 03:00N 09°26' W 079°52'0 0.0
2017-Aug-15 02:30N 09°26' W 079°52'0 0.0
2017-Aug-15 02:00N 09°26' W 079°52'0 0.0
2017-Aug-15 01:30N 09°26' W 079°52'0 0.0
2017-Aug-15 01:00N 09°26' W 079°52'0 0.0
2017-Aug-15 00:30N 09°26' W 079°52'0 0.0
2017-Aug-15 00:00N 09°26' W 079°52'0 0.1
2017-Aug-14 23:30N 09°26' W 079°52'0 0.9
2017-Aug-14 23:00N 09°26' W 079°52'3 5.5
2017-Aug-14 22:30N 09°23' W 079°54'2 3.1
2017-Aug-14 21:59N 09°22' W 079°53'0 0.0
2017-Aug-14 21:29N 09°22' W 079°53'0 0.0
2017-Aug-14 20:59N 09°22' W 079°53'0 0.0
2017-Aug-14 20:29N 09°22' W 079°53'0 0.0
2017-Aug-14 19:59N 09°22' W 079°53'0 0.0
2017-Aug-14 17:20N 09°22' W 079°53'0 0.0
2017-Aug-14 16:59N 09°22' W 079°53'0 0.0
2017-Aug-14 16:29N 09°22' W 079°53'0 0.0
2017-Aug-14 15:59N 09°22' W 079°53'0 0.0
2017-Aug-14 15:29N 09°22' W 079°53'0 0.0
2017-Aug-14 14:59N 09°22' W 079°53'0 0.0
2017-Aug-14 14:29N 09°22' W 079°53'0 0.0
2017-Aug-14 13:59N 09°22' W 079°53'0 0.0
2017-Aug-14 13:29N 09°22' W 079°53'0 0.0
2017-Aug-14 12:59N 09°22' W 079°53'0 0.0
2017-Aug-14 12:29N 09°22' W 079°53'0 0.0
2017-Aug-14 11:59N 09°22' W 079°53'0 0.0
2017-Aug-14 11:29N 09°22' W 079°53'0 0.8
2017-Aug-14 11:00N 09°22' W 079°53'3 6.2
2017-Aug-14 10:30N 09°25' W 079°54'3 5.9
2017-Aug-14 10:00N 09°28' W 079°54'510.5
2017-Aug-14 09:30N 09°31' W 079°58'4 7.5
2017-Aug-14 09:00N 09°33' W 080°01'4 7.6
2017-Aug-14 08:30N 09°33' W 080°05'4 7.6
2017-Aug-14 08:00N 09°34' W 080°09'4 7.4
2017-Aug-14 07:30N 09°34' W 080°13'4 7.4
2017-Aug-14 06:59N 09°35' W 080°16'  
2017-Aug-06 03:17N 25°43' W 079°28'2315.4
2017-Aug-06 01:48N 26°06' W 079°24'515.9
2017-Aug-06 01:31N 26°10' W 079°24'  
Track history (hours):
 
Tides and Currents Weather Stations Pressure Air Temp Water Temp Dewpoint Dewpoint Depression Visibility Wind Speed Wind Dir Waves Ship Positions

Maersk Weymouth

Last reported at 2017-Aug-15 22:04 UTC. Time now 2017-Aug-20 11:34 UTC.
Position N 09°42' W 079°59'.

Length 175 m; draft 7.9 m.

Type: Cargo ship. MMSI: 477622100.

Date/timePositionNaut miles runAvg speedWind from/ knotsBaromVisibWave heightAir tempDewpointWater temp
2017-Aug-15 22:04N 09°42' W 079°59'613.6
2017-Aug-15 21:38N 09°36' W 079°57'213.7
2017-Aug-15 21:29N 09°34' W 079°57'613.5
2017-Aug-15 21:00N 09°28' W 079°54'510.9
2017-Aug-15 20:30N 09°23' W 079°54'1 1.8
2017-Aug-15 20:00N 09°22' W 079°53'0 0.0
2017-Aug-15 19:30N 09°22' W 079°53'0 0.0
2017-Aug-15 19:00N 09°22' W 079°53'0 0.0
2017-Aug-15 18:30N 09°22' W 079°53'0 0.0
2017-Aug-15 18:00N 09°22' W 079°53'0 0.0
2017-Aug-15 17:30N 09°22' W 079°53'0 0.0
2017-Aug-15 17:00N 09°22' W 079°53'0 0.0
2017-Aug-15 16:30N 09°22' W 079°53'0 0.0
2017-Aug-15 16:00N 09°22' W 079°53'0 0.0
2017-Aug-15 15:30N 09°22' W 079°53'0 0.0
2017-Aug-15 15:00N 09°22' W 079°53'0 0.0
2017-Aug-15 14:24N 09°22' W 079°53'0 0.0
2017-Aug-15 14:00N 09°22' W 079°53'0 0.0
2017-Aug-15 13:30N 09°22' W 079°53'0 0.0
2017-Aug-15 13:00N 09°22' W 079°53'0 0.0
2017-Aug-15 12:30N 09°22' W 079°53'0 0.0
2017-Aug-15 12:00N 09°22' W 079°53'0 0.0
2017-Aug-15 11:30N 09°22' W 079°53'0 0.0
2017-Aug-15 11:00N 09°22' W 079°53'0 0.0
2017-Aug-15 10:30N 09°22' W 079°53'0 0.0
2017-Aug-15 10:00N 09°22' W 079°53'0 0.0
2017-Aug-15 09:30N 09°22' W 079°53'0 0.0
2017-Aug-15 09:00N 09°22' W 079°53'0 0.0
2017-Aug-15 08:30N 09°22' W 079°53'0 0.0
2017-Aug-15 08:00N 09°22' W 079°53'0 0.0
2017-Aug-15 07:24N 09°22' W 079°53'0 0.0
2017-Aug-15 07:00N 09°22' W 079°53'0 0.0
2017-Aug-15 06:30N 09°22' W 079°53'0 0.7
2017-Aug-15 06:00N 09°22' W 079°53'3 5.3
2017-Aug-15 05:31N 09°25' W 079°54'2 4.6
2017-Aug-15 05:00N 09°26' W 079°52'0 0.4
2017-Aug-15 04:29N 09°26' W 079°52'0 0.0
2017-Aug-15 03:59N 09°26' W 079°52'0 0.0
2017-Aug-15 03:30N 09°26' W 079°52'0 0.0
2017-Aug-15 03:00N 09°26' W 079°52'0 0.0
2017-Aug-15 02:30N 09°26' W 079°52'0 0.0
2017-Aug-15 02:00N 09°26' W 079°52'0 0.0
2017-Aug-15 01:30N 09°26' W 079°52'0 0.0
2017-Aug-15 01:00N 09°26' W 079°52'0 0.0
2017-Aug-15 00:30N 09°26' W 079°52'0 0.0
2017-Aug-15 00:00N 09°26' W 079°52'0 0.1
2017-Aug-14 23:30N 09°26' W 079°52'0 0.9
2017-Aug-14 23:00N 09°26' W 079°52'3 5.5
2017-Aug-14 22:30N 09°23' W 079°54'2 3.1
2017-Aug-14 21:59N 09°22' W 079°53'0 0.0
2017-Aug-14 21:29N 09°22' W 079°53'0 0.0
2017-Aug-14 20:59N 09°22' W 079°53'0 0.0
2017-Aug-14 20:29N 09°22' W 079°53'0 0.0
2017-Aug-14 19:59N 09°22' W 079°53'0 0.0
2017-Aug-14 17:20N 09°22' W 079°53'0 0.0
2017-Aug-14 16:59N 09°22' W 079°53'0 0.0
2017-Aug-14 16:29N 09°22' W 079°53'0 0.0
2017-Aug-14 15:59N 09°22' W 079°53'0 0.0
2017-Aug-14 15:29N 09°22' W 079°53'0 0.0
2017-Aug-14 14:59N 09°22' W 079°53'0 0.0
2017-Aug-14 14:29N 09°22' W 079°53'0 0.0
2017-Aug-14 13:59N 09°22' W 079°53'0 0.0
2017-Aug-14 13:29N 09°22' W 079°53'0 0.0
2017-Aug-14 12:59N 09°22' W 079°53'0 0.0
2017-Aug-14 12:29N 09°22' W 079°53'0 0.0
2017-Aug-14 11:59N 09°22' W 079°53'0 0.0
2017-Aug-14 11:29N 09°22' W 079°53'0 0.8
2017-Aug-14 11:00N 09°22' W 079°53'3 6.2
2017-Aug-14 10:30N 09°25' W 079°54'3 5.9
2017-Aug-14 10:00N 09°28' W 079°54'510.5
2017-Aug-14 09:30N 09°31' W 079°58'4 7.5
2017-Aug-14 09:00N 09°33' W 080°01'4 7.6
2017-Aug-14 08:30N 09°33' W 080°05'4 7.6
2017-Aug-14 08:00N 09°34' W 080°09'4 7.4
2017-Aug-14 07:30N 09°34' W 080°13'4 7.4
2017-Aug-14 06:59N 09°35' W 080°16'  
2017-Aug-06 03:17N 25°43' W 079°28'2315.4
2017-Aug-06 01:48N 26°06' W 079°24'515.9
2017-Aug-06 01:31N 26°10' W 079°24'  

Dump ship's entire track history